sensor_id;sensor_type;location;lat;lon;timestamp;pressure;altitude;pressure_sealevel;temperature;humidity
60061;BME280;45933;51.336;12.612;2023-04-27T00:00:01;100192.16;;;4.94;52.68
60061;BME280;45933;51.336;12.612;2023-04-27T00:02:28;100184.34;;;4.91;52.46
60061;BME280;45933;51.336;12.612;2023-04-27T00:04:53;100186.03;;;4.89;52.75
60061;BME280;45933;51.336;12.612;2023-04-27T00:07:18;100182.53;;;4.87;52.84
60061;BME280;45933;51.336;12.612;2023-04-27T00:09:43;100185.06;;;4.84;53.41
60061;BME280;45933;51.336;12.612;2023-04-27T00:12:09;100184.16;;;4.81;53.16
60061;BME280;45933;51.336;12.612;2023-04-27T00:14:34;100175.47;;;4.77;53.25
60061;BME280;45933;51.336;12.612;2023-04-27T00:17:00;100177.16;;;4.75;53.22
60061;BME280;45933;51.336;12.612;2023-04-27T00:19:25;100172.78;;;4.72;53.31
60061;BME280;45933;51.336;12.612;2023-04-27T00:21:50;100180.50;;;4.69;53.41
60061;BME280;45933;51.336;12.612;2023-04-27T00:24:15;100176.94;;;4.64;53.82
60061;BME280;45933;51.336;12.612;2023-04-27T00:26:41;100178.63;;;4.62;53.91
60061;BME280;45933;51.336;12.612;2023-04-27T00:29:06;100178.59;;;4.61;53.66
60061;BME280;45933;51.336;12.612;2023-04-27T00:31:31;100185.38;;;4.56;54.09
60061;BME280;45933;51.336;12.612;2023-04-27T00:33:57;100177.56;;;4.53;54.49
60061;BME280;45933;51.336;12.612;2023-04-27T00:36:22;100187.88;;;4.53;54.31
60061;BME280;45933;51.336;12.612;2023-04-27T00:38:47;100179.25;;;4.51;54.13
60061;BME280;45933;51.336;12.612;2023-04-27T00:41:12;100177.50;;;4.50;54.30
60061;BME280;45933;51.336;12.612;2023-04-27T00:43:42;100179.25;;;4.51;53.82
60061;BME280;45933;51.336;12.612;2023-04-27T00:46:08;100180.00;;;4.45;53.81
60061;BME280;45933;51.336;12.612;2023-04-27T00:48:35;100181.72;;;4.44;53.95
60061;BME280;45933;51.336;12.612;2023-04-27T00:51:00;100182.56;;;4.43;54.12
60061;BME280;45933;51.336;12.612;2023-04-27T00:53:25;100185.13;;;4.43;53.95
60061;BME280;45933;51.336;12.612;2023-04-27T00:55:51;100177.38;;;4.43;54.12
60061;BME280;45933;51.336;12.612;2023-04-27T00:58:16;100185.06;;;4.42;54.14
60061;BME280;45933;51.336;12.612;2023-04-27T01:00:42;100182.47;;;4.40;53.86
60061;BME280;45933;51.336;12.612;2023-04-27T01:03:08;100185.03;;;4.39;53.56
60061;BME280;45933;51.336;12.612;2023-04-27T01:05:34;100184.94;;;4.34;53.99
60061;BME280;45933;51.336;12.612;2023-04-27T01:08:00;100184.00;;;4.32;54.83
60061;BME280;45933;51.336;12.612;2023-04-27T01:10:25;100177.09;;;4.31;54.48
60061;BME280;45933;51.336;12.612;2023-04-27T01:12:51;100180.50;;;4.29;54.17
60061;BME280;45933;51.336;12.612;2023-04-27T01:15:16;100176.13;;;4.25;54.72
60061;BME280;45933;51.336;12.612;2023-04-27T01:17:41;100177.81;;;4.23;55.14
60061;BME280;45933;51.336;12.612;2023-04-27T01:20:07;100184.59;;;4.19;54.95
60061;BME280;45933;51.336;12.612;2023-04-27T01:22:33;100191.41;;;4.15;55.09
60061;BME280;45933;51.336;12.612;2023-04-27T01:24:59;100189.66;;;4.14;54.90
60061;BME280;45933;51.336;12.612;2023-04-27T01:27:24;100188.75;;;4.12;55.40
60061;BME280;45933;51.336;12.612;2023-04-27T01:29:49;100189.59;;;4.11;55.29
60061;BME280;45933;51.336;12.612;2023-04-27T01:32:15;100193.88;;;4.11;55.17
60061;BME280;45933;51.336;12.612;2023-04-27T01:34:40;100196.41;;;4.09;55.37
60061;BME280;45933;51.336;12.612;2023-04-27T01:37:05;100200.75;;;4.10;55.40
60061;BME280;45933;51.336;12.612;2023-04-27T01:39:31;100202.44;;;4.10;54.86
60061;BME280;45933;51.336;12.612;2023-04-27T01:41:56;100200.72;;;4.09;55.38
60061;BME280;45933;51.336;12.612;2023-04-27T01:44:21;100205.03;;;4.10;55.07
60061;BME280;45933;51.336;12.612;2023-04-27T01:46:48;100207.59;;;4.08;54.91
60061;BME280;45933;51.336;12.612;2023-04-27T01:49:13;100211.88;;;4.08;54.84
60061;BME280;45933;51.336;12.612;2023-04-27T01:51:41;100210.06;;;4.05;55.25
60061;BME280;45933;51.336;12.612;2023-04-27T01:54:06;100216.94;;;4.05;55.08
60061;BME280;45933;51.336;12.612;2023-04-27T01:56:31;100216.09;;;4.06;55.02
60061;BME280;45933;51.336;12.612;2023-04-27T01:58:57;100212.72;;;4.07;54.83
60061;BME280;45933;51.336;12.612;2023-04-27T02:01:22;100211.88;;;4.08;54.84
60061;BME280;45933;51.336;12.612;2023-04-27T02:03:48;100210.19;;;4.10;54.85
60061;BME280;45933;51.336;12.612;2023-04-27T02:06:13;100211.94;;;4.11;54.76
60061;BME280;45933;51.336;12.612;2023-04-27T02:08:38;100215.41;;;4.11;55.14
60061;BME280;45933;51.336;12.612;2023-04-27T02:11:04;100217.91;;;4.08;54.84
60061;BME280;45933;51.336;12.612;2023-04-27T02:13:29;100212.75;;;4.08;55.13
60061;BME280;45933;51.336;12.612;2023-04-27T02:15:54;100218.78;;;4.09;55.17
60061;BME280;45933;51.336;12.612;2023-04-27T02:18:20;100218.75;;;4.07;54.71
60061;BME280;45933;51.336;12.612;2023-04-27T02:20:45;100219.53;;;4.05;54.40
60061;BME280;45933;51.336;12.612;2023-04-27T02:23:11;100222.94;;;4.04;54.78
60061;BME280;45933;51.336;12.612;2023-04-27T02:25:36;100228.97;;;4.03;55.43
60061;BME280;45933;51.336;12.612;2023-04-27T02:28:02;100219.41;;;3.99;55.23
60061;BME280;45933;51.336;12.612;2023-04-27T02:30:28;100227.09;;;3.97;55.02
60061;BME280;45933;51.336;12.612;2023-04-27T02:32:54;100230.44;;;3.93;55.33
60061;BME280;45933;51.336;12.612;2023-04-27T02:35:19;100225.25;;;3.91;55.31
60061;BME280;45933;51.336;12.612;2023-04-27T02:37:45;100229.47;;;3.88;55.53
60061;BME280;45933;51.336;12.612;2023-04-27T02:40:10;100225.16;;;3.87;55.23
60061;BME280;45933;51.336;12.612;2023-04-27T02:42:36;100230.28;;;3.85;55.44
60061;BME280;45933;51.336;12.612;2023-04-27T02:45:04;100237.09;;;3.83;55.81
60061;BME280;45933;51.336;12.612;2023-04-27T02:47:30;100234.44;;;3.80;55.88
60061;BME280;45933;51.336;12.612;2023-04-27T02:49:55;100229.28;;;3.80;55.60
60061;BME280;45933;51.336;12.612;2023-04-27T02:52:20;100233.53;;;3.78;55.65
60061;BME280;45933;51.336;12.612;2023-04-27T02:54:46;100237.81;;;3.78;55.69
60061;BME280;45933;51.336;12.612;2023-04-27T02:57:11;100242.00;;;3.74;55.74
60061;BME280;45933;51.336;12.612;2023-04-27T02:59:36;100240.25;;;3.72;55.05
60061;BME280;45933;51.336;12.612;2023-04-27T03:02:01;100239.34;;;3.70;55.30
60061;BME280;45933;51.336;12.612;2023-04-27T03:04:35;100242.72;;;3.67;55.64
60061;BME280;45933;51.336;12.612;2023-04-27T03:07:02;100247.00;;;3.66;55.83
60061;BME280;45933;51.336;12.612;2023-04-27T03:09:28;100249.56;;;3.66;56.03
60061;BME280;45933;51.336;12.612;2023-04-27T03:11:53;100251.28;;;3.66;56.20
60061;BME280;45933;51.336;12.612;2023-04-27T03:14:18;100252.16;;;3.66;55.87
60061;BME280;45933;51.336;12.612;2023-04-27T03:16:43;100253.88;;;3.67;56.09
60061;BME280;45933;51.336;12.612;2023-04-27T03:19:09;100250.44;;;3.67;55.91
60061;BME280;45933;51.336;12.612;2023-04-27T03:21:34;100259.88;;;3.66;55.82
60061;BME280;45933;51.336;12.612;2023-04-27T03:24:00;100261.63;;;3.67;55.99
60061;BME280;45933;51.336;12.612;2023-04-27T03:26:25;100259.88;;;3.66;55.45
60061;BME280;45933;51.336;12.612;2023-04-27T03:28:50;100262.44;;;3.65;55.07
60061;BME280;45933;51.336;12.612;2023-04-27T03:31:16;100254.59;;;3.62;55.81
60061;BME280;45933;51.336;12.612;2023-04-27T03:33:41;100263.19;;;3.61;55.74
60061;BME280;45933;51.336;12.612;2023-04-27T03:36:08;100263.97;;;3.58;55.23
60061;BME280;45933;51.336;12.612;2023-04-27T03:38:34;100270.69;;;3.53;55.75
60061;BME280;45933;51.336;12.612;2023-04-27T03:41:00;100264.69;;;3.53;55.95
60061;BME280;45933;51.336;12.612;2023-04-27T03:43:25;100262.91;;;3.50;56.37
60061;BME280;45933;51.336;12.612;2023-04-27T03:45:51;100261.16;;;3.49;56.12
60061;BME280;45933;51.336;12.612;2023-04-27T03:48:17;100263.75;;;3.49;56.32
60061;BME280;45933;51.336;12.612;2023-04-27T03:50:43;100265.47;;;3.49;56.24
60061;BME280;45933;51.336;12.612;2023-04-27T03:53:09;100268.91;;;3.49;56.17
60061;BME280;45933;51.336;12.612;2023-04-27T03:55:38;100270.63;;;3.50;55.69
60061;BME280;45933;51.336;12.612;2023-04-27T03:58:04;100272.25;;;3.47;55.85
60061;BME280;45933;51.336;12.612;2023-04-27T04:00:30;100275.66;;;3.46;56.21
60061;BME280;45933;51.336;12.612;2023-04-27T04:02:55;100274.78;;;3.44;56.38
60061;BME280;45933;51.336;12.612;2023-04-27T04:05:21;100278.22;;;3.44;56.54
60061;BME280;45933;51.336;12.612;2023-04-27T04:07:46;100288.56;;;3.46;56.49
60061;BME280;45933;51.336;12.612;2023-04-27T04:10:11;100298.84;;;3.44;56.02
60061;BME280;45933;51.336;12.612;2023-04-27T04:12:36;100302.25;;;3.43;56.29
60061;BME280;45933;51.336;12.612;2023-04-27T04:15:03;100305.69;;;3.44;56.27
60061;BME280;45933;51.336;12.612;2023-04-27T04:17:29;100298.78;;;3.42;56.27
60061;BME280;45933;51.336;12.612;2023-04-27T04:19:54;100305.69;;;3.44;56.08
60061;BME280;45933;51.336;12.612;2023-04-27T04:22:19;100309.16;;;3.44;56.42
60061;BME280;45933;51.336;12.612;2023-04-27T04:24:45;100311.72;;;3.44;56.27
60061;BME280;45933;51.336;12.612;2023-04-27T04:27:11;100305.75;;;3.47;56.38
60061;BME280;45933;51.336;12.612;2023-04-27T04:29:36;100311.84;;;3.49;56.76
60061;BME280;45933;51.336;12.612;2023-04-27T04:32:03;100305.03;;;3.51;56.74
60061;BME280;45933;51.336;12.612;2023-04-27T04:34:28;100313.75;;;3.56;57.10
60061;BME280;45933;51.336;12.612;2023-04-27T04:36:53;100310.41;;;3.60;57.22
60061;BME280;45933;51.336;12.612;2023-04-27T04:39:21;100314.88;;;3.65;57.47
60061;BME280;45933;51.336;12.612;2023-04-27T04:41:47;100315.84;;;3.71;57.31
60061;BME280;45933;51.336;12.612;2023-04-27T04:44:16;100316.88;;;3.77;57.37
60061;BME280;45933;51.336;12.612;2023-04-27T04:46:42;100312.75;;;3.84;57.29
60061;BME280;45933;51.336;12.612;2023-04-27T04:49:07;100320.69;;;3.91;57.58
60061;BME280;45933;51.336;12.612;2023-04-27T04:51:33;100321.69;;;3.98;57.50
60061;BME280;45933;51.336;12.612;2023-04-27T04:53:59;100325.34;;;4.06;57.56
60061;BME280;45933;51.336;12.612;2023-04-27T04:56:24;100324.66;;;4.13;57.58
60061;BME280;45933;51.336;12.612;2023-04-27T04:58:49;100317.06;;;4.19;57.61
60061;BME280;45933;51.336;12.612;2023-04-27T05:01:15;100312.13;;;4.29;57.06
60061;BME280;45933;51.336;12.612;2023-04-27T05:03:40;100315.72;;;4.35;56.91
60061;BME280;45933;51.336;12.612;2023-04-27T05:06:05;100312.47;;;4.44;57.14
60061;BME280;45933;51.336;12.612;2023-04-27T05:08:31;100312.63;;;4.52;56.92
60061;BME280;45933;51.336;12.612;2023-04-27T05:10:56;100311.13;;;4.60;56.92
60061;BME280;45933;51.336;12.612;2023-04-27T05:13:21;100308.66;;;4.66;56.68
60061;BME280;45933;51.336;12.612;2023-04-27T05:15:49;100316.56;;;4.73;56.18
60061;BME280;45933;51.336;12.612;2023-04-27T05:18:15;100310.72;;;4.82;56.28
60061;BME280;45933;51.336;12.612;2023-04-27T05:20:40;100316.09;;;4.91;56.04
60061;BME280;45933;51.336;12.612;2023-04-27T05:23:05;100317.09;;;4.99;55.67
60061;BME280;45933;51.336;12.612;2023-04-27T05:25:31;100312.06;;;5.06;55.55
60061;BME280;45933;51.336;12.612;2023-04-27T05:27:57;100312.22;;;5.13;55.82
60061;BME280;45933;51.336;12.612;2023-04-27T05:30:22;100308.13;;;5.23;55.12
60061;BME280;45933;51.336;12.612;2023-04-27T05:32:48;100305.66;;;5.31;55.14
60061;BME280;45933;51.336;12.612;2023-04-27T05:35:13;100312.75;;;5.39;54.73
60061;BME280;45933;51.336;12.612;2023-04-27T05:37:38;100312.84;;;5.45;54.87
60061;BME280;45933;51.336;12.612;2023-04-27T05:40:04;100312.09;;;5.53;54.58
60061;BME280;45933;51.336;12.612;2023-04-27T05:42:31;100313.13;;;5.61;54.55
60061;BME280;45933;51.336;12.612;2023-04-27T05:44:56;100306.34;;;5.66;54.75
60061;BME280;45933;51.336;12.612;2023-04-27T05:47:22;100310.75;;;5.73;54.98
60061;BME280;45933;51.336;12.612;2023-04-27T05:49:53;100313.53;;;5.84;54.88
60061;BME280;45933;51.336;12.612;2023-04-27T05:52:19;100312.72;;;5.86;54.38
60061;BME280;45933;51.336;12.612;2023-04-27T05:54:48;100323.28;;;5.97;54.61
60061;BME280;45933;51.336;12.612;2023-04-27T05:57:14;100318.19;;;6.01;54.36
60061;BME280;45933;51.336;12.612;2023-04-27T05:59:40;100313.13;;;6.08;53.36
60061;BME280;45933;51.336;12.612;2023-04-27T06:02:05;100320.13;;;6.15;53.71
60061;BME280;45933;51.336;12.612;2023-04-27T06:04:31;100320.19;;;6.19;54.05
60061;BME280;45933;51.336;12.612;2023-04-27T06:06:57;100315.09;;;6.24;53.95
60061;BME280;45933;51.336;12.612;2023-04-27T06:09:23;100315.19;;;6.28;54.22
60061;BME280;45933;51.336;12.612;2023-04-27T06:11:48;100322.16;;;6.34;53.41
60061;BME280;45933;51.336;12.612;2023-04-27T06:14:13;100323.97;;;6.40;54.16
60061;BME280;45933;51.336;12.612;2023-04-27T06:16:38;100325.72;;;6.42;53.26
60061;BME280;45933;51.336;12.612;2023-04-27T06:19:05;100325.81;;;6.48;54.11
60061;BME280;45933;51.336;12.612;2023-04-27T06:21:32;100330.25;;;6.54;53.53
60061;BME280;45933;51.336;12.612;2023-04-27T06:23:57;100332.03;;;6.60;53.37
60061;BME280;45933;51.336;12.612;2023-04-27T06:26:23;100326.91;;;6.64;53.23
60061;BME280;45933;51.336;12.612;2023-04-27T06:28:48;100334.75;;;6.69;52.91
60061;BME280;45933;51.336;12.612;2023-04-27T06:31:13;100331.34;;;6.73;53.17
60061;BME280;45933;51.336;12.612;2023-04-27T06:33:39;100329.66;;;6.75;52.46
60061;BME280;45933;51.336;12.612;2023-04-27T06:36:04;100335.81;;;6.81;52.54
60061;BME280;45933;51.336;12.612;2023-04-27T06:38:29;100325.50;;;6.88;52.58
60061;BME280;45933;51.336;12.612;2023-04-27T06:40:55;100332.50;;;6.95;52.71
60061;BME280;45933;51.336;12.612;2023-04-27T06:43:21;100339.50;;;7.00;52.37
60061;BME280;45933;51.336;12.612;2023-04-27T06:45:46;100336.97;;;7.05;52.03
60061;BME280;45933;51.336;12.612;2023-04-27T06:48:11;100334.44;;;7.11;51.63
60061;BME280;45933;51.336;12.612;2023-04-27T06:50:36;100341.41;;;7.17;52.12
60061;BME280;45933;51.336;12.612;2023-04-27T06:53:02;100336.34;;;7.24;52.58
60061;BME280;45933;51.336;12.612;2023-04-27T06:55:27;100341.59;;;7.30;52.68
60061;BME280;45933;51.336;12.612;2023-04-27T06:57:52;100343.44;;;7.39;52.26
60061;BME280;45933;51.336;12.612;2023-04-27T07:00:18;100340.91;;;7.47;52.46
60061;BME280;45933;51.336;12.612;2023-04-27T07:02:43;100336.69;;;7.55;52.16
60061;BME280;45933;51.336;12.612;2023-04-27T07:05:09;100334.19;;;7.64;52.41
60061;BME280;45933;51.336;12.612;2023-04-27T07:07:34;100340.31;;;7.72;52.95
60061;BME280;45933;51.336;12.612;2023-04-27T07:10:00;100342.97;;;7.80;52.18
60061;BME280;45933;51.336;12.612;2023-04-27T07:12:25;100349.13;;;7.88;53.20
60061;BME280;45933;51.336;12.612;2023-04-27T07:14:50;100355.25;;;7.95;53.32
60061;BME280;45933;51.336;12.612;2023-04-27T07:17:16;100353.66;;;8.09;52.54
60061;BME280;45933;51.336;12.612;2023-04-27T07:19:41;100355.47;;;8.21;53.45
60061;BME280;45933;51.336;12.612;2023-04-27T07:22:06;100353.00;;;8.34;52.58
60061;BME280;45933;51.336;12.612;2023-04-27T07:24:32;100360.09;;;8.51;52.45
60061;BME280;45933;51.336;12.612;2023-04-27T07:26:57;100350.66;;;8.65;51.96
60061;BME280;45933;51.336;12.612;2023-04-27T07:29:23;100351.63;;;8.84;51.80
60061;BME280;45933;51.336;12.612;2023-04-27T07:31:52;100355.19;;;9.01;51.96
60061;BME280;45933;51.336;12.612;2023-04-27T07:34:17;100357.00;;;9.22;51.36
60061;BME280;45933;51.336;12.612;2023-04-27T07:36:43;100354.50;;;9.42;51.15
60061;BME280;45933;51.336;12.612;2023-04-27T07:39:09;100361.50;;;9.61;49.84
60061;BME280;45933;51.336;12.612;2023-04-27T07:41:35;100358.94;;;9.83;50.13
60061;BME280;45933;51.336;12.612;2023-04-27T07:44:01;100358.13;;;10.02;50.01
60061;BME280;45933;51.336;12.612;2023-04-27T07:46:26;100357.22;;;10.21;48.50
60061;BME280;45933;51.336;12.612;2023-04-27T07:48:51;100360.75;;;10.42;49.37
60061;BME280;45933;51.336;12.612;2023-04-27T07:51:19;100363.34;;;10.54;48.28
60061;BME280;45933;51.336;12.612;2023-04-27T07:53:45;100368.53;;;10.72;48.54
60061;BME280;45933;51.336;12.612;2023-04-27T07:56:10;100371.97;;;10.85;47.27
60061;BME280;45933;51.336;12.612;2023-04-27T07:58:36;100361.53;;;11.02;47.38
60061;BME280;45933;51.336;12.612;2023-04-27T08:01:02;100356.22;;;11.17;47.40
60061;BME280;45933;51.336;12.612;2023-04-27T08:03:27;100359.66;;;11.35;47.01
60061;BME280;45933;51.336;12.612;2023-04-27T08:05:52;100356.09;;;11.52;46.99
60061;BME280;45933;51.336;12.612;2023-04-27T08:08:18;100358.63;;;11.68;45.79
60061;BME280;45933;51.336;12.612;2023-04-27T08:10:43;100362.91;;;11.87;45.28
60061;BME280;45933;51.336;12.612;2023-04-27T08:13:08;100363.63;;;12.06;45.51
60061;BME280;45933;51.336;12.612;2023-04-27T08:15:35;100362.69;;;12.16;44.53
60061;BME280;45933;51.336;12.612;2023-04-27T08:18:00;100368.69;;;12.29;43.12
60061;BME280;45933;51.336;12.612;2023-04-27T08:20:26;100368.53;;;12.44;45.26
60061;BME280;45933;51.336;12.612;2023-04-27T08:22:51;100360.59;;;12.56;44.35
60061;BME280;45933;51.336;12.612;2023-04-27T08:25:16;100361.31;;;12.72;44.00
60061;BME280;45933;51.336;12.612;2023-04-27T08:27:42;100369.06;;;12.83;42.54
60061;BME280;45933;51.336;12.612;2023-04-27T08:30:09;100365.44;;;12.95;42.09
60061;BME280;45933;51.336;12.612;2023-04-27T08:32:34;100362.63;;;13.13;42.85
60061;BME280;45933;51.336;12.612;2023-04-27T08:35:00;100364.22;;;13.29;41.94
60061;BME280;45933;51.336;12.612;2023-04-27T08:37:25;100363.09;;;13.49;42.44
60061;BME280;45933;51.336;12.612;2023-04-27T08:39:50;100360.13;;;13.73;41.45
60061;BME280;45933;51.336;12.612;2023-04-27T08:42:16;100354.53;;;13.99;42.66
60061;BME280;45933;51.336;12.612;2023-04-27T08:44:42;100356.91;;;14.13;40.73
60061;BME280;45933;51.336;12.612;2023-04-27T08:47:08;100355.84;;;14.26;40.04
60061;BME280;45933;51.336;12.612;2023-04-27T08:49:34;100347.69;;;14.43;39.43
60061;BME280;45933;51.336;12.612;2023-04-27T08:52:00;100348.44;;;14.53;39.05
60061;BME280;45933;51.336;12.612;2023-04-27T08:54:25;100347.56;;;14.52;39.74
60061;BME280;45933;51.336;12.612;2023-04-27T08:56:51;100348.38;;;14.56;39.67
60061;BME280;45933;51.336;12.612;2023-04-27T08:59:17;100342.16;;;14.60;39.61
60061;BME280;45933;51.336;12.612;2023-04-27T09:01:43;100343.19;;;14.53;39.41
60061;BME280;45933;51.336;12.612;2023-04-27T09:04:12;100350.78;;;14.68;39.87
60061;BME280;45933;51.336;12.612;2023-04-27T09:06:37;100342.66;;;14.82;40.36
60061;BME280;45933;51.336;12.612;2023-04-27T09:09:02;100336.88;;;15.09;40.82
60061;BME280;45933;51.336;12.612;2023-04-27T09:13:58;100333.44;;;15.48;36.34
60061;BME280;45933;51.336;12.612;2023-04-27T09:16:26;100334.81;;;15.67;37.09
60061;BME280;45933;51.336;12.612;2023-04-27T09:18:53;100334.31;;;15.88;36.78
60061;BME280;45933;51.336;12.612;2023-04-27T09:21:26;100331.13;;;16.11;36.14
60061;BME280;45933;51.336;12.612;2023-04-27T09:23:52;100328.22;;;16.22;35.44
60061;BME280;45933;51.336;12.612;2023-04-27T09:26:24;100324.09;;;16.47;36.17
60061;BME280;45933;51.336;12.612;2023-04-27T09:28:52;100330.66;;;16.64;35.72
60061;BME280;45933;51.336;12.612;2023-04-27T09:31:18;100316.16;;;16.83;36.14
60061;BME280;45933;51.336;12.612;2023-04-27T09:33:44;100318.13;;;17.06;35.13
60061;BME280;45933;51.336;12.612;2023-04-27T09:36:11;100320.94;;;17.31;35.45
60061;BME280;45933;51.336;12.612;2023-04-27T09:38:37;100319.56;;;17.47;33.38
60061;BME280;45933;51.336;12.612;2023-04-27T09:41:02;100319.75;;;17.69;33.08
60061;BME280;45933;51.336;12.612;2023-04-27T09:43:28;100324.06;;;17.73;32.15
60061;BME280;45933;51.336;12.612;2023-04-27T09:45:56;100321.44;;;17.73;32.88
60061;BME280;45933;51.336;12.612;2023-04-27T09:48:23;100316.19;;;17.72;32.48
60061;BME280;45933;51.336;12.612;2023-04-27T09:50:49;100315.47;;;17.67;31.34
60061;BME280;45933;51.336;12.612;2023-04-27T09:53:59;100320.56;;;17.71;32.71
60061;BME280;45933;51.336;12.612;2023-04-27T09:59:46;100315.94;;;17.51;33.67
60061;BME280;45933;51.336;12.612;2023-04-27T10:02:15;100311.47;;;17.24;32.46
60061;BME280;45933;51.336;12.612;2023-04-27T10:04:59;100312.13;;;17.01;32.24
60061;BME280;45933;51.336;12.612;2023-04-27T10:07:32;100315.56;;;16.70;32.39
60061;BME280;45933;51.336;12.612;2023-04-27T10:10:02;100310.75;;;16.54;32.52
60061;BME280;45933;51.336;12.612;2023-04-27T10:12:35;100311.22;;;16.37;33.53
60061;BME280;45933;51.336;12.612;2023-04-27T10:17:37;100310.78;;;16.18;33.37
60061;BME280;45933;51.336;12.612;2023-04-27T10:20:04;100301.28;;;16.14;32.27
60061;BME280;45933;51.336;12.612;2023-04-27T10:22:39;100306.38;;;16.20;32.21
60061;BME280;45933;51.336;12.612;2023-04-27T10:25:19;100303.69;;;16.21;32.67
60061;BME280;45933;51.336;12.612;2023-04-27T10:27:54;100302.03;;;16.19;32.25
60061;BME280;45933;51.336;12.612;2023-04-27T10:30:22;100295.81;;;16.21;32.32
60061;BME280;45933;51.336;12.612;2023-04-27T10:32:55;100303.75;;;16.20;31.71
60061;BME280;45933;51.336;12.612;2023-04-27T10:35:30;100308.16;;;16.18;31.96
60061;BME280;45933;51.336;12.612;2023-04-27T10:38:04;100306.50;;;16.15;31.78
60061;BME280;45933;51.336;12.612;2023-04-27T10:40:32;100317.22;;;16.06;32.55
60061;BME280;45933;51.336;12.612;2023-04-27T10:43:10;100317.38;;;16.00;32.92
60061;BME280;45933;51.336;12.612;2023-04-27T10:45:36;100315.06;;;15.88;33.89
60061;BME280;45933;51.336;12.612;2023-04-27T10:48:01;100319.66;;;15.78;33.04
60061;BME280;45933;51.336;12.612;2023-04-27T10:50:27;100310.31;;;15.65;32.47
60061;BME280;45933;51.336;12.612;2023-04-27T10:52:52;100313.91;;;15.61;33.66
60061;BME280;45933;51.336;12.612;2023-04-27T10:55:19;100313.28;;;15.48;32.19
60061;BME280;45933;51.336;12.612;2023-04-27T10:57:49;100313.44;;;15.42;33.21
60061;BME280;45933;51.336;12.612;2023-04-27T11:00:22;100305.59;;;15.40;33.14
60061;BME280;45933;51.336;12.612;2023-04-27T11:02:47;100309.16;;;15.36;33.82
60061;BME280;45933;51.336;12.612;2023-04-27T11:05:17;100307.91;;;15.54;34.96
60061;BME280;45933;51.336;12.612;2023-04-27T11:07:43;100299.75;;;15.68;35.42
60061;BME280;45933;51.336;12.612;2023-04-27T11:10:09;100300.00;;;15.94;33.52
60061;BME280;45933;51.336;12.612;2023-04-27T11:12:35;100297.41;;;16.27;33.82
60061;BME280;45933;51.336;12.612;2023-04-27T11:15:00;100304.56;;;16.56;32.72
60061;BME280;45933;51.336;12.612;2023-04-27T11:17:29;100300.47;;;16.79;32.46
60061;BME280;45933;51.336;12.612;2023-04-27T11:19:54;100298.72;;;16.79;30.55
60061;BME280;45933;51.336;12.612;2023-04-27T11:22:20;100309.31;;;16.76;30.17
60061;BME280;45933;51.336;12.612;2023-04-27T11:24:49;100315.59;;;16.72;30.30
60061;BME280;45933;51.336;12.612;2023-04-27T11:27:15;100315.06;;;16.58;30.30
60061;BME280;45933;51.336;12.612;2023-04-27T11:29:42;100322.25;;;16.50;30.52
60061;BME280;45933;51.336;12.612;2023-04-27T11:32:07;100313.78;;;16.40;31.50
60061;BME280;45933;51.336;12.612;2023-04-27T11:34:33;100323.69;;;16.29;29.32
60061;BME280;45933;51.336;12.612;2023-04-27T11:37:04;100319.53;;;16.18;29.92
60061;BME280;45933;51.336;12.612;2023-04-27T11:39:37;100322.56;;;16.03;29.78
60061;BME280;45933;51.336;12.612;2023-04-27T11:42:25;100320.00;;;16.00;30.22
60061;BME280;45933;51.336;12.612;2023-04-27T11:45:04;100317.69;;;15.88;30.10
60061;BME280;45933;51.336;12.612;2023-04-27T11:47:33;100317.09;;;15.75;30.40
60061;BME280;45933;51.336;12.612;2023-04-27T11:50:02;100315.41;;;15.73;30.69
60061;BME280;45933;51.336;12.612;2023-04-27T11:52:35;100307.41;;;15.77;30.81
60061;BME280;45933;51.336;12.612;2023-04-27T11:55:02;100319.63;;;15.80;31.73
60061;BME280;45933;51.336;12.612;2023-04-27T11:57:32;100309.97;;;15.80;31.39
60061;BME280;45933;51.336;12.612;2023-04-27T11:59:59;100317.44;;;15.99;32.44
60061;BME280;45933;51.336;12.612;2023-04-27T12:02:29;100315.34;;;16.11;30.87
60061;BME280;45933;51.336;12.612;2023-04-27T12:04:55;100312.94;;;16.38;30.03
60061;BME280;45933;51.336;12.612;2023-04-27T12:07:20;100317.47;;;16.65;31.05
60061;BME280;45933;51.336;12.612;2023-04-27T12:09:45;100317.06;;;16.82;29.27
60061;BME280;45933;51.336;12.612;2023-04-27T12:12:12;100310.66;;;16.91;28.86
60061;BME280;45933;51.336;12.612;2023-04-27T12:14:38;100316.75;;;16.93;27.59
60061;BME280;45933;51.336;12.612;2023-04-27T12:17:03;100309.56;;;16.99;27.57
60061;BME280;45933;51.336;12.612;2023-04-27T12:19:29;100314.94;;;16.95;28.17
60061;BME280;45933;51.336;12.612;2023-04-27T12:21:56;100312.59;;;16.84;28.01
60061;BME280;45933;51.336;12.612;2023-04-27T12:24:22;100300.47;;;16.79;28.42
60061;BME280;45933;51.336;12.612;2023-04-27T12:26:47;100313.69;;;16.77;29.81
60061;BME280;45933;51.336;12.612;2023-04-27T12:29:13;100312.09;;;16.71;28.50
60061;BME280;45933;51.336;12.612;2023-04-27T12:31:38;100307.53;;;16.77;29.02
60061;BME280;45933;51.336;12.612;2023-04-27T12:34:04;100304.03;;;16.76;29.97
60061;BME280;45933;51.336;12.612;2023-04-27T12:36:29;100310.03;;;16.81;30.82
60061;BME280;45933;51.336;12.612;2023-04-27T12:39:12;100305.53;;;16.86;30.09
60061;BME280;45933;51.336;12.612;2023-04-27T12:41:37;100301.91;;;16.90;29.84
60061;BME280;45933;51.336;12.612;2023-04-27T12:44:03;100305.31;;;16.94;29.69
60061;BME280;45933;51.336;12.612;2023-04-27T12:46:28;100310.53;;;16.95;29.06
60061;BME280;45933;51.336;12.612;2023-04-27T12:48:53;100306.06;;;16.97;29.17